createdAt,value
2022-10-11T00:01:46.590Z,100.00
2022-10-11T00:04:13.279Z,100.00
2022-10-11T00:06:40.195Z,100.00
2022-10-11T00:09:07.054Z,100.00
2022-10-11T00:11:33.568Z,100.00
2022-10-11T00:14:00.254Z,100.00
2022-10-11T00:16:26.786Z,100.00
2022-10-11T00:18:53.448Z,100.00
2022-10-11T00:21:21.158Z,100.00
2022-10-11T00:23:47.781Z,100.00
2022-10-11T00:26:14.506Z,100.00
2022-10-11T00:28:41.709Z,100.00
2022-10-11T00:31:13.173Z,100.00
2022-10-11T00:33:39.853Z,100.00
2022-10-11T00:36:07.599Z,100.00
2022-10-11T00:38:34.723Z,100.00
2022-10-11T00:41:01.387Z,100.00
2022-10-11T00:43:30.548Z,100.00
2022-10-11T00:45:57.006Z,100.00
2022-10-11T00:48:27.746Z,100.00
2022-10-11T00:50:56.553Z,100.00
2022-10-11T00:53:23.251Z,100.00
2022-10-11T00:55:52.009Z,100.00
2022-10-11T00:58:19.206Z,100.00
2022-10-11T01:00:46.461Z,100.00
2022-10-11T01:03:13.037Z,100.00
2022-10-11T01:05:40.197Z,100.00
2022-10-11T01:08:07.592Z,100.00
2022-10-11T01:10:34.101Z,100.00
2022-10-11T01:13:19.023Z,100.00
2022-10-11T01:15:54.569Z,100.00
2022-10-11T01:18:44.563Z,100.00
2022-10-11T01:21:22.017Z,100.00
2022-10-11T01:23:57.814Z,100.00
2022-10-11T01:26:30.343Z,100.00
2022-10-11T01:29:02.712Z,100.00
2022-10-11T01:31:34.534Z,100.00
2022-10-11T01:34:27.550Z,100.00
2022-10-11T01:36:54.034Z,100.00
2022-10-11T01:39:33.986Z,100.00
2022-10-11T01:42:02.789Z,100.00
2022-10-11T01:44:30.443Z,100.00
2022-10-11T01:46:57.168Z,100.00
2022-10-11T01:49:23.746Z,100.00
2022-10-11T01:51:52.814Z,100.00
2022-10-11T01:55:03.884Z,100.00
2022-10-11T01:57:52.463Z,100.00
2022-10-11T02:00:18.944Z,100.00
2022-10-11T02:02:54.556Z,100.00
2022-10-11T02:05:27.061Z,100.00
2022-10-11T02:07:56.815Z,100.00
2022-10-11T02:10:26.038Z,100.00
2022-10-11T02:12:55.672Z,100.00
2022-10-11T02:15:23.034Z,100.00
2022-10-11T02:17:52.768Z,100.00
2022-10-11T02:20:21.042Z,100.00
2022-10-11T02:22:49.648Z,100.00
2022-10-11T02:25:20.119Z,100.00
2022-10-11T02:27:48.983Z,100.00
2022-10-11T02:30:15.818Z,100.00
2022-10-11T02:32:43.740Z,100.00
2022-10-11T02:35:11.859Z,100.00
2022-10-11T02:37:44.654Z,100.00
2022-10-11T02:40:19.070Z,100.00
2022-10-11T02:42:49.093Z,100.00
2022-10-11T02:45:21.398Z,100.00
2022-10-11T02:47:48.230Z,100.00
2022-10-11T02:50:15.124Z,100.00
2022-10-11T02:52:41.973Z,100.00
2022-10-11T02:55:08.858Z,100.00
2022-10-11T02:57:35.718Z,100.00
2022-10-11T03:00:02.760Z,100.00
2022-10-11T03:02:29.271Z,100.00
2022-10-11T03:04:55.745Z,100.00
2022-10-11T03:07:22.319Z,100.00
2022-10-11T03:09:48.877Z,100.00
2022-10-11T03:12:15.335Z,100.00
2022-10-11T03:14:41.884Z,100.00
2022-10-11T03:17:34.483Z,100.00
2022-10-11T03:19:55.015Z,100.00
2022-10-11T03:22:21.520Z,100.00
2022-10-11T03:24:48.008Z,100.00
2022-10-11T03:27:14.530Z,100.00
2022-10-11T03:29:41.023Z,100.00
2022-10-11T03:32:07.514Z,100.00
2022-10-11T03:34:34.094Z,100.00
2022-10-11T03:37:00.620Z,100.00
2022-10-11T03:39:27.104Z,100.00
2022-10-11T03:41:53.686Z,100.00
2022-10-11T03:44:20.167Z,100.00
2022-10-11T03:46:46.628Z,100.00
2022-10-11T03:49:13.163Z,100.00
2022-10-11T03:51:39.623Z,100.00
2022-10-11T03:54:06.073Z,100.00
2022-10-11T03:56:32.813Z,100.00
2022-10-11T03:58:59.335Z,100.00
2022-10-11T04:01:25.824Z,100.00
2022-10-11T04:03:55.068Z,100.00
2022-10-11T04:06:21.615Z,100.00
2022-10-11T04:08:48.157Z,100.00
2022-10-11T04:11:14.667Z,100.00
2022-10-11T04:13:41.183Z,100.00
2022-10-11T04:16:07.954Z,100.00
2022-10-11T04:18:34.732Z,100.00
2022-10-11T04:21:01.237Z,100.00
2022-10-11T04:23:27.712Z,100.00
2022-10-11T04:25:54.237Z,100.00
2022-10-11T04:28:20.813Z,100.00
2022-10-11T04:30:47.389Z,100.00
2022-10-11T04:33:13.937Z,100.00
2022-10-11T04:35:40.615Z,100.00
2022-10-11T04:38:07.091Z,100.00
2022-10-11T04:40:33.605Z,100.00
2022-10-11T04:43:00.377Z,100.00
2022-10-11T04:45:26.922Z,100.00
2022-10-11T04:47:53.436Z,100.00
2022-10-11T04:50:19.920Z,100.00
2022-10-11T04:52:46.482Z,100.00
2022-10-11T04:55:12.983Z,100.00
2022-10-11T04:57:39.462Z,100.00
2022-10-11T05:00:06.200Z,100.00
2022-10-11T05:02:33.049Z,100.00
2022-10-11T05:04:59.787Z,100.00
2022-10-11T05:07:26.259Z,100.00
2022-10-11T05:09:52.965Z,100.00
2022-10-11T05:12:20.045Z,100.00
2022-10-11T05:14:46.513Z,100.00
2022-10-11T05:17:13.042Z,100.00
2022-10-11T05:19:39.719Z,100.00
2022-10-11T05:22:06.215Z,100.00
2022-10-11T05:24:32.791Z,100.00
2022-10-11T05:27:03.140Z,100.00
2022-10-11T05:29:30.070Z,100.00
2022-10-11T05:31:56.606Z,100.00
2022-10-11T05:34:23.136Z,100.00
2022-10-11T05:36:49.608Z,100.00
2022-10-11T05:39:16.173Z,100.00
2022-10-11T05:41:42.637Z,100.00
2022-10-11T05:44:09.272Z,100.00
2022-10-11T05:46:35.851Z,100.00
2022-10-11T05:49:02.345Z,100.00
2022-10-11T05:51:28.829Z,100.00
2022-10-11T05:53:55.348Z,100.00
2022-10-11T05:56:22.994Z,100.00
2022-10-11T05:58:49.773Z,100.00
2022-10-11T06:01:23.697Z,100.00
2022-10-11T06:03:50.406Z,100.00
2022-10-11T06:06:16.882Z,100.00
2022-10-11T06:08:43.937Z,100.00
2022-10-11T06:11:12.203Z,100.00
2022-10-11T06:13:38.887Z,100.00
2022-10-11T06:16:06.045Z,100.00
2022-10-11T06:18:32.802Z,100.00
2022-10-11T06:20:59.622Z,100.00
2022-10-11T06:23:26.485Z,100.00
2022-10-11T06:26:03.461Z,100.00
2022-10-11T06:28:30.244Z,100.00
2022-10-11T06:30:57.199Z,100.00
2022-10-11T06:33:23.856Z,100.00
2022-10-11T06:35:50.627Z,100.00
2022-10-11T06:38:17.148Z,100.00
2022-10-11T06:40:43.642Z,100.00
2022-10-11T06:43:10.164Z,100.00
2022-10-11T06:45:36.617Z,100.00
2022-10-11T06:48:05.675Z,100.00
2022-10-11T06:50:58.042Z,100.00
2022-10-11T06:53:19.913Z,100.00
2022-10-11T06:55:47.326Z,100.00
2022-10-11T06:58:13.791Z,100.00
2022-10-11T07:00:40.378Z,100.00
2022-10-11T07:03:07.649Z,100.00
2022-10-11T07:05:35.501Z,100.00
2022-10-11T07:08:02.291Z,100.00
2022-10-11T07:10:28.839Z,100.00
2022-10-11T07:12:55.357Z,100.00
2022-10-11T07:15:22.171Z,100.00
2022-10-11T07:17:48.817Z,100.00
2022-10-11T07:20:15.500Z,100.00
2022-10-11T07:22:42.118Z,100.00
2022-10-11T07:25:09.036Z,100.00
2022-10-11T07:27:35.637Z,100.00
2022-10-11T07:30:02.350Z,100.00
2022-10-11T07:32:28.999Z,100.00
2022-10-11T07:34:56.603Z,100.00
2022-10-11T07:37:23.210Z,100.00
2022-10-11T07:39:49.984Z,100.00
2022-10-11T07:42:16.649Z,100.00
2022-10-11T07:44:43.294Z,100.00
2022-10-11T07:47:11.386Z,100.00
2022-10-11T07:49:38.315Z,100.00
2022-10-11T07:52:05.267Z,100.00
2022-10-11T07:54:32.983Z,100.00
2022-10-11T07:56:59.817Z,100.00
2022-10-11T07:59:26.554Z,100.00
2022-10-11T08:01:53.242Z,100.00
2022-10-11T08:04:21.412Z,100.00
2022-10-11T08:06:52.566Z,100.00
2022-10-11T08:09:20.116Z,100.00
2022-10-11T08:11:46.739Z,100.00
2022-10-11T08:14:13.374Z,100.00
2022-10-11T08:16:40.294Z,100.00
2022-10-11T08:19:07.119Z,100.00
2022-10-11T08:21:34.026Z,100.00
2022-10-11T08:24:02.648Z,100.00
2022-10-11T08:26:30.170Z,100.00
2022-10-11T08:28:58.876Z,100.00
2022-10-11T08:31:25.616Z,100.00
2022-10-11T08:33:52.208Z,100.00
2022-10-11T08:36:18.806Z,100.00
2022-10-11T08:38:45.588Z,100.00
2022-10-11T08:41:27.412Z,100.00
2022-10-11T08:43:56.746Z,100.00
2022-10-11T08:46:29.188Z,100.00
2022-10-11T08:48:55.922Z,100.00
2022-10-11T08:51:30.843Z,100.00
2022-10-11T08:54:07.136Z,100.00
2022-10-11T08:56:37.805Z,100.00
2022-10-11T08:59:15.522Z,100.00
2022-10-11T09:01:52.896Z,100.00
2022-10-11T09:04:19.718Z,100.00
2022-10-11T09:07:11.453Z,100.00
2022-10-11T09:09:56.157Z,100.00
2022-10-11T09:13:04.828Z,100.00
2022-10-11T09:15:49.694Z,100.00
2022-10-11T09:18:28.385Z,100.00
2022-10-11T09:21:12.302Z,100.00
2022-10-11T09:23:51.348Z,100.00
2022-10-11T09:27:05.573Z,100.00
2022-10-11T09:29:51.593Z,100.00
2022-10-11T09:32:21.418Z,100.00
2022-10-11T09:35:02.380Z,100.00
2022-10-11T09:37:43.813Z,100.00
2022-10-11T09:40:10.897Z,100.00
2022-10-11T09:42:37.579Z,100.00
2022-10-11T09:45:20.955Z,100.00
2022-10-11T09:47:49.790Z,100.00
2022-10-11T09:50:20.750Z,100.00
2022-10-11T09:52:51.194Z,100.00
2022-10-11T09:55:54.381Z,100.00
2022-10-11T09:58:35.528Z,100.00
2022-10-11T10:01:08.710Z,100.00
2022-10-11T10:03:43.720Z,100.00
2022-10-11T10:06:16.158Z,100.00
2022-10-11T10:08:45.623Z,100.00
2022-10-11T10:11:12.976Z,100.00
2022-10-11T10:13:46.737Z,100.00
2022-10-11T10:16:29.678Z,100.00
2022-10-11T10:19:05.164Z,100.00
2022-10-11T10:21:33.225Z,100.00
2022-10-11T10:24:03.287Z,100.00
2022-10-11T10:26:30.853Z,100.00
2022-10-11T10:28:57.380Z,100.00
2022-10-11T10:31:25.624Z,100.00
2022-10-11T10:33:54.522Z,100.00
2022-10-11T10:36:27.546Z,100.00
2022-10-11T10:39:08.562Z,100.00
2022-10-11T10:41:36.054Z,100.00
2022-10-11T10:44:03.731Z,100.00
2022-10-11T10:46:36.231Z,100.00
2022-10-11T10:52:30.211Z,100.00
2022-10-11T10:55:06.751Z,100.00
2022-10-11T10:58:01.669Z,100.00
2022-10-11T11:00:35.148Z,100.00
2022-10-11T11:03:46.016Z,94.51
2022-10-11T11:06:27.959Z,93.55
2022-10-11T11:09:05.741Z,86.41
2022-10-11T11:11:53.805Z,83.79
2022-10-11T11:14:45.446Z,81.19
2022-10-11T11:17:39.899Z,83.57
2022-10-11T11:20:06.540Z,80.17
2022-10-11T11:22:44.639Z,79.21
2022-10-11T11:25:30.882Z,76.92
2022-10-11T11:28:19.006Z,73.85
2022-10-11T11:31:11.944Z,64.74
2022-10-11T11:33:48.660Z,62.11
2022-10-11T11:36:26.632Z,57.46
2022-10-11T11:39:01.516Z,56.08
2022-10-11T11:41:34.349Z,56.42
2022-10-11T11:44:09.954Z,56.63
2022-10-11T11:47:06.489Z,55.40
2022-10-11T11:49:39.374Z,54.33
2022-10-11T11:52:08.505Z,53.24
2022-10-11T11:54:44.587Z,54.24
2022-10-11T11:57:42.100Z,58.70
2022-10-11T12:00:17.640Z,60.82
2022-10-11T12:02:55.287Z,60.17
2022-10-11T12:05:28.721Z,58.41
2022-10-11T12:08:06.634Z,57.02
2022-10-11T12:10:55.539Z,54.30
2022-10-11T12:13:36.518Z,53.40
2022-10-11T12:16:14.568Z,53.79
2022-10-11T12:18:56.469Z,51.36
2022-10-11T12:21:36.383Z,56.19
2022-10-11T12:24:52.940Z,55.81
2022-10-11T12:27:49.444Z,52.53
2022-10-11T12:30:44.307Z,52.14
2022-10-11T12:33:22.468Z,50.68
2022-10-11T12:35:54.946Z,48.74
2022-10-11T12:38:24.391Z,52.39
2022-10-11T12:41:10.950Z,54.99
2022-10-11T12:43:49.927Z,56.49
2022-10-11T12:46:28.532Z,55.61
2022-10-11T12:49:24.698Z,54.63
2022-10-11T12:51:51.324Z,52.60
2022-10-11T12:54:42.780Z,51.65
2022-10-11T12:57:12.143Z,48.72
2022-10-11T12:59:45.245Z,49.39
2022-10-11T13:02:40.043Z,47.22
2022-10-11T13:05:29.954Z,45.99
2022-10-11T13:07:59.274Z,46.23
2022-10-11T13:10:45.835Z,46.27
2022-10-11T13:13:22.083Z,45.76
2022-10-11T13:15:49.755Z,46.54
2022-10-11T13:18:18.156Z,49.14
2022-10-11T13:20:45.157Z,51.77
2022-10-11T13:23:38.791Z,49.82
2022-10-11T13:26:05.722Z,45.89
2022-10-11T13:28:36.323Z,45.12
2022-10-11T13:31:04.558Z,43.88
2022-10-11T13:33:34.807Z,44.06
2022-10-11T13:36:05.318Z,46.71
2022-10-11T13:38:35.154Z,50.79
2022-10-11T13:41:07.987Z,54.12
2022-10-11T13:43:36.791Z,56.21
2022-10-11T13:46:07.190Z,59.09
2022-10-11T13:48:41.124Z,55.08
2022-10-11T13:51:28.927Z,52.63
2022-10-11T13:54:13.474Z,49.69
2022-10-11T13:56:47.410Z,47.87
2022-10-11T13:59:22.984Z,46.58
2022-10-11T14:01:57.337Z,46.45
2022-10-11T14:04:29.352Z,44.75
2022-10-11T14:07:02.709Z,43.98
2022-10-11T14:09:31.292Z,44.22
2022-10-11T14:12:25.928Z,44.25
2022-10-11T14:14:52.659Z,45.35
2022-10-11T14:17:22.547Z,44.70
2022-10-11T14:20:16.972Z,43.27
2022-10-11T14:22:44.454Z,43.73
2022-10-11T14:25:12.015Z,43.00
2022-10-11T14:27:39.599Z,43.23
2022-10-11T14:30:26.143Z,43.79
2022-10-11T14:32:55.844Z,43.71
2022-10-11T14:35:25.562Z,42.03
2022-10-11T14:37:52.398Z,42.60
2022-10-11T14:40:22.795Z,42.24
2022-10-11T14:42:49.926Z,41.05
2022-10-11T14:45:17.764Z,40.68
2022-10-11T14:47:45.399Z,42.02
2022-10-11T14:51:02.652Z,40.60
2022-10-11T14:53:29.328Z,40.20
2022-10-11T14:55:56.199Z,41.06
2022-10-11T14:58:22.880Z,41.79
2022-10-11T15:00:49.532Z,41.19
2022-10-11T15:03:16.161Z,41.64
2022-10-11T15:05:42.777Z,42.65
2022-10-11T15:08:09.618Z,42.21
2022-10-11T15:10:39.310Z,42.14
2022-10-11T15:13:07.238Z,42.16
2022-10-11T15:15:36.843Z,40.71
2022-10-11T15:18:06.038Z,41.11
2022-10-11T15:20:35.968Z,41.16
2022-10-11T15:23:04.360Z,41.85
2022-10-11T15:25:31.215Z,42.42
2022-10-11T15:27:58.236Z,42.25
2022-10-11T15:30:28.806Z,43.75
2022-10-11T15:32:55.746Z,45.75
2022-10-11T15:35:24.913Z,48.93
2022-10-11T15:37:57.779Z,50.05
2022-10-11T15:40:27.700Z,52.69
2022-10-11T15:42:54.884Z,56.11
2022-10-11T15:45:22.748Z,59.26
2022-10-11T15:47:50.251Z,62.51
2022-10-11T15:50:37.542Z,68.13
2022-10-11T15:53:08.934Z,69.38
2022-10-11T15:55:41.018Z,70.48
2022-10-11T15:58:12.898Z,72.57
2022-10-11T16:00:39.546Z,76.67
2022-10-11T16:03:06.230Z,79.38
2022-10-11T16:05:33.456Z,84.53
2022-10-11T16:08:00.142Z,89.15
2022-10-11T16:10:26.892Z,90.29
2022-10-11T16:12:53.746Z,94.50
2022-10-11T16:15:20.423Z,95.49
2022-10-11T16:17:47.239Z,95.81
2022-10-11T16:20:15.003Z,97.78
2022-10-11T16:22:42.028Z,100.00
2022-10-11T16:25:09.724Z,100.00
2022-10-11T16:27:37.265Z,100.00
2022-10-11T16:30:04.370Z,100.00
2022-10-11T16:32:35.176Z,100.00
2022-10-11T16:35:01.854Z,100.00
2022-10-11T16:37:28.532Z,100.00
2022-10-11T16:39:55.362Z,100.00
2022-10-11T16:42:24.335Z,100.00
2022-10-11T16:44:51.238Z,100.00
2022-10-11T16:47:18.831Z,100.00
2022-10-11T16:49:46.321Z,100.00
2022-10-11T16:52:14.243Z,100.00
2022-10-11T16:54:46.119Z,100.00
2022-10-11T16:57:15.441Z,100.00
2022-10-11T16:59:42.625Z,100.00
2022-10-11T17:02:16.282Z,100.00
2022-10-11T17:04:43.083Z,100.00
2022-10-11T17:07:12.947Z,100.00
2022-10-11T17:09:43.974Z,100.00
2022-10-11T17:12:13.263Z,100.00
2022-10-11T17:14:41.202Z,100.00
2022-10-11T17:17:09.883Z,100.00
2022-10-11T17:19:45.136Z,100.00
2022-10-11T17:22:15.151Z,100.00
2022-10-11T17:24:41.891Z,100.00
2022-10-11T17:27:08.750Z,100.00
2022-10-11T17:29:35.663Z,100.00
2022-10-11T17:32:02.576Z,100.00
2022-10-11T17:34:29.303Z,100.00
2022-10-11T17:36:56.027Z,100.00
2022-10-11T17:39:24.216Z,100.00
2022-10-11T17:41:52.375Z,100.00
2022-10-11T17:44:19.712Z,100.00
2022-10-11T17:46:47.683Z,100.00
2022-10-11T17:49:14.655Z,100.00
2022-10-11T17:51:41.974Z,100.00
2022-10-11T17:54:13.239Z,100.00
2022-10-11T17:56:43.085Z,100.00
2022-10-11T17:59:17.131Z,100.00
2022-10-11T18:01:44.276Z,100.00
2022-10-11T18:04:16.667Z,100.00
2022-10-11T18:06:45.540Z,100.00
2022-10-11T18:09:13.424Z,100.00
2022-10-11T18:11:40.155Z,100.00
2022-10-11T18:14:07.103Z,100.00
2022-10-11T18:16:35.524Z,100.00
2022-10-11T18:19:04.556Z,100.00
2022-10-11T18:21:34.700Z,100.00
2022-10-11T18:24:03.674Z,100.00
2022-10-11T18:26:31.064Z,100.00
2022-10-11T18:28:59.195Z,100.00
2022-10-11T18:31:28.539Z,100.00
2022-10-11T18:33:55.762Z,100.00
2022-10-11T18:36:25.612Z,100.00
2022-10-11T18:39:04.642Z,100.00
2022-10-11T18:41:33.101Z,100.00
2022-10-11T18:44:02.613Z,100.00
2022-10-11T18:46:30.319Z,100.00
2022-10-11T18:48:58.566Z,100.00
2022-10-11T18:51:31.038Z,100.00
2022-10-11T18:54:00.894Z,100.00
2022-10-11T18:56:30.566Z,100.00
2022-10-11T18:58:58.820Z,100.00
2022-10-11T19:01:29.213Z,100.00
2022-10-11T19:03:57.363Z,100.00
2022-10-11T19:06:30.106Z,100.00
2022-10-11T19:09:00.626Z,100.00
2022-10-11T19:11:28.435Z,100.00
2022-10-11T19:14:00.924Z,100.00
2022-10-11T19:16:29.840Z,100.00
2022-10-11T19:18:57.435Z,100.00
2022-10-11T19:21:24.974Z,100.00
2022-10-11T19:23:51.960Z,100.00
2022-10-11T19:26:26.414Z,100.00
2022-10-11T19:28:58.806Z,100.00
2022-10-11T19:31:25.777Z,100.00
2022-10-11T19:33:53.054Z,100.00
2022-10-11T19:36:20.125Z,100.00
2022-10-11T19:38:49.204Z,100.00
2022-10-11T19:41:18.272Z,100.00
2022-10-11T19:43:45.896Z,100.00
2022-10-11T19:46:20.149Z,100.00
2022-10-11T19:48:54.295Z,100.00
2022-10-11T19:51:23.599Z,100.00
2022-10-11T19:53:57.748Z,100.00
2022-10-11T19:56:26.155Z,100.00
2022-10-11T19:58:52.858Z,100.00
2022-10-11T20:01:28.139Z,100.00
2022-10-11T20:03:57.221Z,100.00
2022-10-11T20:06:26.029Z,100.00
2022-10-11T20:09:16.596Z,100.00
2022-10-11T20:11:39.850Z,100.00
2022-10-11T20:14:06.644Z,100.00
2022-10-11T20:16:33.493Z,100.00
2022-10-11T20:19:00.347Z,100.00
2022-10-11T20:21:29.693Z,100.00
2022-10-11T20:23:59.708Z,100.00
2022-10-11T20:26:27.737Z,100.00
2022-10-11T20:28:56.283Z,100.00
2022-10-11T20:31:26.179Z,100.00
2022-10-11T20:33:58.682Z,100.00
2022-10-11T20:36:30.192Z,100.00
2022-10-11T20:38:58.371Z,100.00
2022-10-11T20:41:27.695Z,100.00
2022-10-11T20:43:56.532Z,100.00
2022-10-11T20:46:28.466Z,100.00
2022-10-11T20:49:01.581Z,100.00
2022-10-11T20:51:30.411Z,100.00
2022-10-11T20:53:57.203Z,100.00
2022-10-11T20:56:24.248Z,100.00
2022-10-11T20:58:52.758Z,100.00
2022-10-11T21:01:21.752Z,100.00
2022-10-11T21:03:48.593Z,100.00
2022-10-11T21:06:15.467Z,100.00
2022-10-11T21:08:42.382Z,100.00
2022-10-11T21:11:09.433Z,100.00
2022-10-11T21:13:36.687Z,100.00
2022-10-11T21:16:16.681Z,100.00
2022-10-11T21:18:43.593Z,100.00
2022-10-11T21:21:13.246Z,100.00
2022-10-11T21:23:40.927Z,100.00
2022-10-11T21:26:10.403Z,100.00
2022-10-11T21:28:38.201Z,100.00
2022-10-11T21:31:06.620Z,100.00
2022-10-11T21:33:34.362Z,100.00
2022-10-11T21:36:09.616Z,100.00
2022-10-11T21:38:36.563Z,100.00
2022-10-11T21:41:05.404Z,100.00
2022-10-11T21:43:33.780Z,100.00
2022-10-11T21:46:00.423Z,100.00
2022-10-11T21:48:29.329Z,100.00
2022-10-11T21:50:56.068Z,100.00
2022-10-11T21:53:22.858Z,100.00
2022-10-11T21:55:49.680Z,100.00
2022-10-11T21:58:16.270Z,100.00
2022-10-11T22:00:42.935Z,100.00
2022-10-11T22:03:09.547Z,100.00
2022-10-11T22:05:36.254Z,100.00
2022-10-11T22:08:02.956Z,100.00
2022-10-11T22:10:29.559Z,100.00
2022-10-11T22:12:56.167Z,100.00
2022-10-11T22:15:23.081Z,100.00
2022-10-11T22:17:49.723Z,100.00
2022-10-11T22:20:16.429Z,100.00
2022-10-11T22:22:43.115Z,100.00
2022-10-11T22:25:09.734Z,100.00
2022-10-11T22:27:36.973Z,100.00
2022-10-11T22:30:03.923Z,100.00
2022-10-11T22:32:30.532Z,100.00
2022-10-11T22:34:57.171Z,100.00
2022-10-11T22:37:23.836Z,100.00
2022-10-11T22:39:50.436Z,100.00
2022-10-11T22:42:17.201Z,100.00
2022-10-11T22:44:44.267Z,100.00
2022-10-11T22:47:10.857Z,100.00
2022-10-11T22:49:37.514Z,100.00
2022-10-11T22:52:04.339Z,100.00
2022-10-11T22:54:31.014Z,100.00
2022-10-11T22:56:57.707Z,100.00
2022-10-11T22:59:24.522Z,100.00
2022-10-11T23:01:51.202Z,100.00
2022-10-11T23:04:18.594Z,100.00
2022-10-11T23:06:45.358Z,100.00
2022-10-11T23:09:12.196Z,100.00
2022-10-11T23:11:38.809Z,100.00
2022-10-11T23:14:05.520Z,100.00
2022-10-11T23:16:32.166Z,100.00
2022-10-11T23:18:58.818Z,100.00
2022-10-11T23:21:25.498Z,100.00
2022-10-11T23:23:53.873Z,100.00
2022-10-11T23:26:21.057Z,100.00
2022-10-11T23:28:47.889Z,100.00
2022-10-11T23:31:18.116Z,100.00
2022-10-11T23:33:45.999Z,100.00
2022-10-11T23:36:17.371Z,100.00
2022-10-11T23:38:44.499Z,100.00
2022-10-11T23:41:11.668Z,100.00
2022-10-11T23:43:38.500Z,100.00
2022-10-11T23:46:05.245Z,100.00
2022-10-11T23:48:31.857Z,100.00
2022-10-11T23:50:58.862Z,100.00
2022-10-11T23:53:25.496Z,100.00
2022-10-11T23:55:52.183Z,100.00
2022-10-11T23:58:18.898Z,100.00
